sensor_id;sensor_type;location;lat;lon;timestamp;temperature;humidity
52203;DHT22;38173;52.850;6.970;2022-09-09T00:00:25;13.30;99.90
52203;DHT22;38173;52.850;6.970;2022-09-09T00:03:14;13.20;99.90
52203;DHT22;38173;52.850;6.970;2022-09-09T00:08:21;13.20;99.90
52203;DHT22;38173;52.850;6.970;2022-09-09T00:10:54;13.20;99.90
52203;DHT22;38173;52.850;6.970;2022-09-09T00:13:51;13.10;99.90
52203;DHT22;38173;52.850;6.970;2022-09-09T00:16:28;13.10;99.90
52203;DHT22;38173;52.850;6.970;2022-09-09T00:19:24;13.10;99.90
52203;DHT22;38173;52.850;6.970;2022-09-09T00:24:44;13.00;99.90
52203;DHT22;38173;52.850;6.970;2022-09-09T00:27:31;13.00;99.90
52203;DHT22;38173;52.850;6.970;2022-09-09T00:30:19;13.00;99.90
52203;DHT22;38173;52.850;6.970;2022-09-09T00:32:58;13.00;99.90
52203;DHT22;38173;52.850;6.970;2022-09-09T00:35:37;13.00;99.90
52203;DHT22;38173;52.850;6.970;2022-09-09T00:38:15;13.00;99.90
52203;DHT22;38173;52.850;6.970;2022-09-09T00:41:03;13.00;99.90
52203;DHT22;38173;52.850;6.970;2022-09-09T00:43:38;12.90;99.90
52203;DHT22;38173;52.850;6.970;2022-09-09T00:54:03;12.80;99.90
52203;DHT22;38173;52.850;6.970;2022-09-09T01:01:51;12.70;99.90
52203;DHT22;38173;52.850;6.970;2022-09-09T01:04:27;12.70;99.90
52203;DHT22;38173;52.850;6.970;2022-09-09T01:07:01;12.70;99.90
52203;DHT22;38173;52.850;6.970;2022-09-09T01:09:54;12.70;99.90
52203;DHT22;38173;52.850;6.970;2022-09-09T01:12:25;12.70;99.90
52203;DHT22;38173;52.850;6.970;2022-09-09T01:15:03;12.70;99.90
52203;DHT22;38173;52.850;6.970;2022-09-09T01:17:41;12.70;99.90
52203;DHT22;38173;52.850;6.970;2022-09-09T01:20:19;12.70;99.90
52203;DHT22;38173;52.850;6.970;2022-09-09T01:23:04;12.70;99.90
52203;DHT22;38173;52.850;6.970;2022-09-09T01:28:16;12.70;99.90
52203;DHT22;38173;52.850;6.970;2022-09-09T01:30:45;12.80;99.90
52203;DHT22;38173;52.850;6.970;2022-09-09T01:33:16;12.80;99.90
52203;DHT22;38173;52.850;6.970;2022-09-09T01:38:17;13.00;99.90
52203;DHT22;38173;52.850;6.970;2022-09-09T01:40:43;13.00;99.90
52203;DHT22;38173;52.850;6.970;2022-09-09T01:43:10;13.10;99.90
52203;DHT22;38173;52.850;6.970;2022-09-09T01:45:39;13.10;99.90
52203;DHT22;38173;52.850;6.970;2022-09-09T01:48:07;13.20;99.90
52203;DHT22;38173;52.850;6.970;2022-09-09T01:50:35;13.20;99.90
52203;DHT22;38173;52.850;6.970;2022-09-09T01:53:01;13.30;99.90
52203;DHT22;38173;52.850;6.970;2022-09-09T01:55:36;13.30;99.90
52203;DHT22;38173;52.850;6.970;2022-09-09T01:58:32;13.40;99.90
52203;DHT22;38173;52.850;6.970;2022-09-09T02:03:52;13.40;99.90
52203;DHT22;38173;52.850;6.970;2022-09-09T02:06:37;13.50;99.90
52203;DHT22;38173;52.850;6.970;2022-09-09T02:09:10;13.50;99.90
52203;DHT22;38173;52.850;6.970;2022-09-09T02:11:38;13.50;99.90
52203;DHT22;38173;52.850;6.970;2022-09-09T02:14:23;13.50;99.90
52203;DHT22;38173;52.850;6.970;2022-09-09T02:16:55;13.60;99.90
52203;DHT22;38173;52.850;6.970;2022-09-09T02:19:34;13.60;99.90
52203;DHT22;38173;52.850;6.970;2022-09-09T02:22:02;13.60;99.90
52203;DHT22;38173;52.850;6.970;2022-09-09T02:24:35;13.60;99.90
52203;DHT22;38173;52.850;6.970;2022-09-09T02:27:06;13.60;99.90
52203;DHT22;38173;52.850;6.970;2022-09-09T02:29:40;13.60;99.90
52203;DHT22;38173;52.850;6.970;2022-09-09T02:32:15;13.60;99.90
52203;DHT22;38173;52.850;6.970;2022-09-09T02:34:58;13.60;99.90
52203;DHT22;38173;52.850;6.970;2022-09-09T02:37:28;13.70;99.90
52203;DHT22;38173;52.850;6.970;2022-09-09T02:39:57;13.70;99.90
52203;DHT22;38173;52.850;6.970;2022-09-09T02:42:22;13.70;99.90
52203;DHT22;38173;52.850;6.970;2022-09-09T02:44:49;13.60;99.90
52203;DHT22;38173;52.850;6.970;2022-09-09T02:47:35;13.70;99.90
52203;DHT22;38173;52.850;6.970;2022-09-09T02:55:24;13.60;99.90
52203;DHT22;38173;52.850;6.970;2022-09-09T02:57:54;13.70;99.90
52203;DHT22;38173;52.850;6.970;2022-09-09T03:00:26;13.70;99.90
52203;DHT22;38173;52.850;6.970;2022-09-09T03:02:53;13.70;99.90
52203;DHT22;38173;52.850;6.970;2022-09-09T03:05:22;13.70;99.90
52203;DHT22;38173;52.850;6.970;2022-09-09T03:07:48;13.70;99.90
52203;DHT22;38173;52.850;6.970;2022-09-09T03:10:15;13.70;99.90
52203;DHT22;38173;52.850;6.970;2022-09-09T03:12:41;13.70;99.90
52203;DHT22;38173;52.850;6.970;2022-09-09T03:15:07;13.70;99.90
52203;DHT22;38173;52.850;6.970;2022-09-09T03:17:34;13.70;99.90
52203;DHT22;38173;52.850;6.970;2022-09-09T03:20:04;13.70;99.90
52203;DHT22;38173;52.850;6.970;2022-09-09T03:22:30;13.70;99.90
52203;DHT22;38173;52.850;6.970;2022-09-09T03:24:57;13.80;99.90
52203;DHT22;38173;52.850;6.970;2022-09-09T03:27:24;13.80;99.90
52203;DHT22;38173;52.850;6.970;2022-09-09T03:29:50;13.70;99.90
52203;DHT22;38173;52.850;6.970;2022-09-09T03:32:18;13.80;99.90
52203;DHT22;38173;52.850;6.970;2022-09-09T03:34:44;13.70;99.90
52203;DHT22;38173;52.850;6.970;2022-09-09T03:37:10;13.80;99.90
52203;DHT22;38173;52.850;6.970;2022-09-09T03:39:36;13.80;99.90
52203;DHT22;38173;52.850;6.970;2022-09-09T03:42:02;13.70;99.90
52203;DHT22;38173;52.850;6.970;2022-09-09T03:44:30;13.70;99.90
52203;DHT22;38173;52.850;6.970;2022-09-09T03:46:56;13.70;99.90
52203;DHT22;38173;52.850;6.970;2022-09-09T03:49:22;13.70;99.90
52203;DHT22;38173;52.850;6.970;2022-09-09T03:51:48;13.70;99.90
52203;DHT22;38173;52.850;6.970;2022-09-09T03:54:14;13.70;99.90
52203;DHT22;38173;52.850;6.970;2022-09-09T03:56:39;13.60;99.90
52203;DHT22;38173;52.850;6.970;2022-09-09T03:59:07;13.60;99.90
52203;DHT22;38173;52.850;6.970;2022-09-09T04:01:34;13.60;99.90
52203;DHT22;38173;52.850;6.970;2022-09-09T04:04:00;13.60;99.90
52203;DHT22;38173;52.850;6.970;2022-09-09T04:06:28;13.60;99.90
52203;DHT22;38173;52.850;6.970;2022-09-09T04:08:55;13.60;99.90
52203;DHT22;38173;52.850;6.970;2022-09-09T04:11:21;13.60;99.90
52203;DHT22;38173;52.850;6.970;2022-09-09T04:13:47;13.60;99.90
52203;DHT22;38173;52.850;6.970;2022-09-09T04:16:13;13.60;99.90
52203;DHT22;38173;52.850;6.970;2022-09-09T04:18:40;13.60;99.90
52203;DHT22;38173;52.850;6.970;2022-09-09T04:21:06;13.60;99.90
52203;DHT22;38173;52.850;6.970;2022-09-09T04:23:34;13.60;99.90
52203;DHT22;38173;52.850;6.970;2022-09-09T04:26:02;13.60;99.90
52203;DHT22;38173;52.850;6.970;2022-09-09T04:28:30;13.60;99.90
52203;DHT22;38173;52.850;6.970;2022-09-09T04:30:56;13.60;99.90
52203;DHT22;38173;52.850;6.970;2022-09-09T04:33:25;13.60;99.90
52203;DHT22;38173;52.850;6.970;2022-09-09T04:35:52;13.60;99.90
52203;DHT22;38173;52.850;6.970;2022-09-09T04:38:19;13.60;99.90
52203;DHT22;38173;52.850;6.970;2022-09-09T04:40:48;13.60;99.90
52203;DHT22;38173;52.850;6.970;2022-09-09T04:43:14;13.60;99.90
52203;DHT22;38173;52.850;6.970;2022-09-09T04:45:41;13.60;99.90
52203;DHT22;38173;52.850;6.970;2022-09-09T04:48:08;13.60;99.90
52203;DHT22;38173;52.850;6.970;2022-09-09T04:50:35;13.60;99.90
52203;DHT22;38173;52.850;6.970;2022-09-09T04:53:04;13.60;99.90
52203;DHT22;38173;52.850;6.970;2022-09-09T04:55:31;13.60;99.90
52203;DHT22;38173;52.850;6.970;2022-09-09T04:57:57;13.60;99.90
52203;DHT22;38173;52.850;6.970;2022-09-09T05:00:24;13.60;99.90
52203;DHT22;38173;52.850;6.970;2022-09-09T05:02:50;13.60;99.90
52203;DHT22;38173;52.850;6.970;2022-09-09T05:05:16;13.60;99.90
52203;DHT22;38173;52.850;6.970;2022-09-09T05:07:42;13.60;99.90
52203;DHT22;38173;52.850;6.970;2022-09-09T05:10:09;13.50;99.90
52203;DHT22;38173;52.850;6.970;2022-09-09T05:12:36;13.50;99.90
52203;DHT22;38173;52.850;6.970;2022-09-09T05:15:02;13.50;99.90
52203;DHT22;38173;52.850;6.970;2022-09-09T05:17:27;13.50;99.90
52203;DHT22;38173;52.850;6.970;2022-09-09T05:19:53;13.50;99.90
52203;DHT22;38173;52.850;6.970;2022-09-09T05:22:20;13.50;99.90
52203;DHT22;38173;52.850;6.970;2022-09-09T05:24:46;13.50;99.90
52203;DHT22;38173;52.850;6.970;2022-09-09T05:27:11;13.50;99.90
52203;DHT22;38173;52.850;6.970;2022-09-09T05:29:38;13.50;99.90
52203;DHT22;38173;52.850;6.970;2022-09-09T05:32:04;13.50;99.90
52203;DHT22;38173;52.850;6.970;2022-09-09T05:34:30;13.50;99.90
52203;DHT22;38173;52.850;6.970;2022-09-09T05:36:55;13.50;99.90
52203;DHT22;38173;52.850;6.970;2022-09-09T05:39:21;13.50;99.90
52203;DHT22;38173;52.850;6.970;2022-09-09T05:41:47;13.50;99.90
52203;DHT22;38173;52.850;6.970;2022-09-09T05:44:13;13.50;99.90
52203;DHT22;38173;52.850;6.970;2022-09-09T05:46:39;13.50;99.90
52203;DHT22;38173;52.850;6.970;2022-09-09T05:49:05;13.50;99.90
52203;DHT22;38173;52.850;6.970;2022-09-09T05:51:31;13.50;99.90
52203;DHT22;38173;52.850;6.970;2022-09-09T05:53:57;13.50;99.90
52203;DHT22;38173;52.850;6.970;2022-09-09T05:56:27;13.50;99.90
52203;DHT22;38173;52.850;6.970;2022-09-09T05:58:54;13.50;99.90
52203;DHT22;38173;52.850;6.970;2022-09-09T06:01:25;13.60;99.90
52203;DHT22;38173;52.850;6.970;2022-09-09T06:03:52;13.50;99.90
52203;DHT22;38173;52.850;6.970;2022-09-09T06:06:20;13.50;99.90
52203;DHT22;38173;52.850;6.970;2022-09-09T06:08:47;13.60;99.90
52203;DHT22;38173;52.850;6.970;2022-09-09T06:11:19;13.70;99.90
52203;DHT22;38173;52.850;6.970;2022-09-09T06:13:45;13.70;99.90
52203;DHT22;38173;52.850;6.970;2022-09-09T06:16:13;13.90;99.90
52203;DHT22;38173;52.850;6.970;2022-09-09T06:18:40;13.90;99.90
52203;DHT22;38173;52.850;6.970;2022-09-09T06:21:11;14.00;99.90
52203;DHT22;38173;52.850;6.970;2022-09-09T06:23:39;14.00;99.90
52203;DHT22;38173;52.850;6.970;2022-09-09T06:26:19;14.00;99.90
52203;DHT22;38173;52.850;6.970;2022-09-09T06:28:46;14.00;99.90
52203;DHT22;38173;52.850;6.970;2022-09-09T06:31:14;14.00;99.90
52203;DHT22;38173;52.850;6.970;2022-09-09T06:33:43;14.00;99.90
52203;DHT22;38173;52.850;6.970;2022-09-09T06:36:18;14.00;99.90
52203;DHT22;38173;52.850;6.970;2022-09-09T06:38:44;14.10;99.90
52203;DHT22;38173;52.850;6.970;2022-09-09T06:41:12;14.10;99.90
52203;DHT22;38173;52.850;6.970;2022-09-09T06:43:38;14.10;99.90
52203;DHT22;38173;52.850;6.970;2022-09-09T06:48:36;14.20;99.90
52203;DHT22;38173;52.850;6.970;2022-09-09T06:51:22;14.20;99.90
52203;DHT22;38173;52.850;6.970;2022-09-09T06:53:53;14.20;99.90
52203;DHT22;38173;52.850;6.970;2022-09-09T06:56:24;14.20;99.90
52203;DHT22;38173;52.850;6.970;2022-09-09T06:58:51;14.20;99.90
52203;DHT22;38173;52.850;6.970;2022-09-09T07:01:23;14.20;99.90
52203;DHT22;38173;52.850;6.970;2022-09-09T07:03:52;14.20;99.90
52203;DHT22;38173;52.850;6.970;2022-09-09T07:06:26;14.20;99.90
52203;DHT22;38173;52.850;6.970;2022-09-09T07:08:54;14.20;99.90
52203;DHT22;38173;52.850;6.970;2022-09-09T07:11:22;14.20;99.90
52203;DHT22;38173;52.850;6.970;2022-09-09T07:13:48;14.20;99.90
52203;DHT22;38173;52.850;6.970;2022-09-09T07:16:17;14.30;99.90
52203;DHT22;38173;52.850;6.970;2022-09-09T07:18:43;14.40;99.90
52203;DHT22;38173;52.850;6.970;2022-09-09T07:21:13;14.40;99.90
52203;DHT22;38173;52.850;6.970;2022-09-09T07:23:39;14.50;99.90
52203;DHT22;38173;52.850;6.970;2022-09-09T07:26:10;14.60;99.90
52203;DHT22;38173;52.850;6.970;2022-09-09T07:28:37;14.70;99.90
52203;DHT22;38173;52.850;6.970;2022-09-09T07:31:03;14.70;99.90
52203;DHT22;38173;52.850;6.970;2022-09-09T07:33:30;14.80;99.90
52203;DHT22;38173;52.850;6.970;2022-09-09T07:36:08;14.80;99.90
52203;DHT22;38173;52.850;6.970;2022-09-09T07:38:55;14.90;99.90
52203;DHT22;38173;52.850;6.970;2022-09-09T07:41:28;14.90;99.90
52203;DHT22;38173;52.850;6.970;2022-09-09T07:43:54;14.90;99.90
52203;DHT22;38173;52.850;6.970;2022-09-09T07:46:25;15.00;99.90
52203;DHT22;38173;52.850;6.970;2022-09-09T07:48:53;15.10;99.90
52203;DHT22;38173;52.850;6.970;2022-09-09T07:51:25;15.30;99.90
52203;DHT22;38173;52.850;6.970;2022-09-09T07:53:54;15.50;99.90
52203;DHT22;38173;52.850;6.970;2022-09-09T07:56:21;15.60;99.90
52203;DHT22;38173;52.850;6.970;2022-09-09T07:58:51;15.60;99.90
52203;DHT22;38173;52.850;6.970;2022-09-09T08:01:29;15.60;99.90
52203;DHT22;38173;52.850;6.970;2022-09-09T08:04:01;15.60;99.90
52203;DHT22;38173;52.850;6.970;2022-09-09T08:06:28;15.60;99.90
52203;DHT22;38173;52.850;6.970;2022-09-09T08:08:55;15.70;99.90
52203;DHT22;38173;52.850;6.970;2022-09-09T08:11:23;15.90;99.90
52203;DHT22;38173;52.850;6.970;2022-09-09T08:13:49;16.00;99.90
52203;DHT22;38173;52.850;6.970;2022-09-09T08:16:19;16.20;99.90
52203;DHT22;38173;52.850;6.970;2022-09-09T08:18:47;16.20;99.90
52203;DHT22;38173;52.850;6.970;2022-09-09T08:21:16;16.40;99.90
52203;DHT22;38173;52.850;6.970;2022-09-09T08:23:44;16.50;99.90
52203;DHT22;38173;52.850;6.970;2022-09-09T08:26:12;16.50;99.90
52203;DHT22;38173;52.850;6.970;2022-09-09T08:28:38;16.60;99.90
52203;DHT22;38173;52.850;6.970;2022-09-09T08:31:11;16.60;99.90
52203;DHT22;38173;52.850;6.970;2022-09-09T08:33:38;16.60;99.90
52203;DHT22;38173;52.850;6.970;2022-09-09T08:36:05;16.70;99.90
52203;DHT22;38173;52.850;6.970;2022-09-09T08:38:32;16.70;99.90
52203;DHT22;38173;52.850;6.970;2022-09-09T08:41:12;16.80;99.90
52203;DHT22;38173;52.850;6.970;2022-09-09T08:43:40;16.90;99.90
52203;DHT22;38173;52.850;6.970;2022-09-09T08:46:14;16.90;99.90
52203;DHT22;38173;52.850;6.970;2022-09-09T08:49:01;17.00;99.90
52203;DHT22;38173;52.850;6.970;2022-09-09T08:51:31;17.20;99.90
52203;DHT22;38173;52.850;6.970;2022-09-09T08:54:00;17.40;99.90
52203;DHT22;38173;52.850;6.970;2022-09-09T08:56:28;17.50;99.90
52203;DHT22;38173;52.850;6.970;2022-09-09T08:58:56;17.50;99.90
52203;DHT22;38173;52.850;6.970;2022-09-09T09:12:56;17.90;99.90
52203;DHT22;38173;52.850;6.970;2022-09-09T09:15:30;18.00;99.90
52203;DHT22;38173;52.850;6.970;2022-09-09T09:17:56;18.00;99.90
52203;DHT22;38173;52.850;6.970;2022-09-09T09:20:42;18.20;99.90
52203;DHT22;38173;52.850;6.970;2022-09-09T09:23:21;18.20;99.90
52203;DHT22;38173;52.850;6.970;2022-09-09T09:25:47;18.20;99.90
52203;DHT22;38173;52.850;6.970;2022-09-09T09:28:24;18.30;99.90
52203;DHT22;38173;52.850;6.970;2022-09-09T09:31:00;18.30;99.90
52203;DHT22;38173;52.850;6.970;2022-09-09T09:33:56;18.30;99.90
52203;DHT22;38173;52.850;6.970;2022-09-09T09:36:33;18.30;99.90
52203;DHT22;38173;52.850;6.970;2022-09-09T09:39:00;18.20;99.90
52203;DHT22;38173;52.850;6.970;2022-09-09T09:41:35;18.10;99.90
52203;DHT22;38173;52.850;6.970;2022-09-09T09:44:03;18.00;99.90
52203;DHT22;38173;52.850;6.970;2022-09-09T09:46:31;17.90;99.90
52203;DHT22;38173;52.850;6.970;2022-09-09T09:51:25;17.90;99.90
52203;DHT22;38173;52.850;6.970;2022-09-09T09:53:53;18.00;99.90
52203;DHT22;38173;52.850;6.970;2022-09-09T09:56:27;18.20;99.90
52203;DHT22;38173;52.850;6.970;2022-09-09T09:58:55;18.30;99.90
52203;DHT22;38173;52.850;6.970;2022-09-09T10:01:22;18.60;99.90
52203;DHT22;38173;52.850;6.970;2022-09-09T10:04:00;18.80;99.90
52203;DHT22;38173;52.850;6.970;2022-09-09T10:06:37;18.90;99.90
52203;DHT22;38173;52.850;6.970;2022-09-09T10:09:17;19.00;99.90
52203;DHT22;38173;52.850;6.970;2022-09-09T10:19:45;19.70;99.90
52203;DHT22;38173;52.850;6.970;2022-09-09T10:24:57;19.70;99.90
52203;DHT22;38173;52.850;6.970;2022-09-09T10:27:47;19.60;99.90
52203;DHT22;38173;52.850;6.970;2022-09-09T10:30:20;19.50;99.90
52203;DHT22;38173;52.850;6.970;2022-09-09T10:32:49;19.50;99.90
52203;DHT22;38173;52.850;6.970;2022-09-09T10:35:29;19.50;99.90
52203;DHT22;38173;52.850;6.970;2022-09-09T10:38:10;19.60;99.90
52203;DHT22;38173;52.850;6.970;2022-09-09T10:49:18;19.80;99.90
52203;DHT22;38173;52.850;6.970;2022-09-09T10:54:48;19.90;99.90
52203;DHT22;38173;52.850;6.970;2022-09-09T10:57:27;20.00;99.90
52203;DHT22;38173;52.850;6.970;2022-09-09T10:59:58;20.00;99.90
52203;DHT22;38173;52.850;6.970;2022-09-09T11:02:28;20.00;99.90
52203;DHT22;38173;52.850;6.970;2022-09-09T11:07:59;20.00;99.90
52203;DHT22;38173;52.850;6.970;2022-09-09T11:18:39;20.40;99.90
52203;DHT22;38173;52.850;6.970;2022-09-09T11:21:23;20.50;99.90
52203;DHT22;38173;52.850;6.970;2022-09-09T11:24:11;20.70;99.90
52203;DHT22;38173;52.850;6.970;2022-09-09T11:26:53;20.90;99.90
52203;DHT22;38173;52.850;6.970;2022-09-09T11:40:44;20.30;99.90
52203;DHT22;38173;52.850;6.970;2022-09-09T11:43:17;20.30;99.90
52203;DHT22;38173;52.850;6.970;2022-09-09T11:45:55;20.30;99.90
52203;DHT22;38173;52.850;6.970;2022-09-09T11:48:44;20.40;99.90
52203;DHT22;38173;52.850;6.970;2022-09-09T11:53:57;20.50;99.90
52203;DHT22;38173;52.850;6.970;2022-09-09T11:59:23;20.70;99.90
52203;DHT22;38173;52.850;6.970;2022-09-09T12:09:56;20.90;99.90
52203;DHT22;38173;52.850;6.970;2022-09-09T12:12:25;20.90;99.90
52203;DHT22;38173;52.850;6.970;2022-09-09T12:17:29;20.90;99.90
52203;DHT22;38173;52.850;6.970;2022-09-09T12:20:14;21.00;99.90
52203;DHT22;38173;52.850;6.970;2022-09-09T12:22:58;21.10;99.90
52203;DHT22;38173;52.850;6.970;2022-09-09T12:25:55;21.10;99.90
52203;DHT22;38173;52.850;6.970;2022-09-09T12:31:25;21.30;99.90
52203;DHT22;38173;52.850;6.970;2022-09-09T12:33:53;21.40;99.90
52203;DHT22;38173;52.850;6.970;2022-09-09T12:36:22;21.50;99.90
52203;DHT22;38173;52.850;6.970;2022-09-09T12:38:50;21.40;99.90
52203;DHT22;38173;52.850;6.970;2022-09-09T12:41:25;21.30;99.90
52203;DHT22;38173;52.850;6.970;2022-09-09T12:44:02;21.30;99.90
52203;DHT22;38173;52.850;6.970;2022-09-09T12:46:48;21.10;99.90
52203;DHT22;38173;52.850;6.970;2022-09-09T12:49:28;20.90;99.90
52203;DHT22;38173;52.850;6.970;2022-09-09T12:51:56;20.80;99.90
52203;DHT22;38173;52.850;6.970;2022-09-09T12:54:23;20.80;99.90
52203;DHT22;38173;52.850;6.970;2022-09-09T12:56:49;20.80;99.90
52203;DHT22;38173;52.850;6.970;2022-09-09T12:59:35;20.80;99.90
52203;DHT22;38173;52.850;6.970;2022-09-09T13:02:02;20.70;99.90
52203;DHT22;38173;52.850;6.970;2022-09-09T13:04:27;20.50;99.90
52203;DHT22;38173;52.850;6.970;2022-09-09T13:06:53;20.20;99.90
52203;DHT22;38173;52.850;6.970;2022-09-09T13:09:19;19.80;99.90
52203;DHT22;38173;52.850;6.970;2022-09-09T13:11:54;19.60;99.90
52203;DHT22;38173;52.850;6.970;2022-09-09T13:14:35;19.60;99.90
52203;DHT22;38173;52.850;6.970;2022-09-09T13:17:05;19.80;99.90
52203;DHT22;38173;52.850;6.970;2022-09-09T13:19:37;19.90;99.90
52203;DHT22;38173;52.850;6.970;2022-09-09T13:27:41;19.90;99.90
52203;DHT22;38173;52.850;6.970;2022-09-09T13:30:40;19.60;99.90
52203;DHT22;38173;52.850;6.970;2022-09-09T13:35:56;19.20;99.90
52203;DHT22;38173;52.850;6.970;2022-09-09T13:38:22;19.00;99.90
52203;DHT22;38173;52.850;6.970;2022-09-09T13:40:58;18.90;99.90
52203;DHT22;38173;52.850;6.970;2022-09-09T13:43:25;18.80;99.90
52203;DHT22;38173;52.850;6.970;2022-09-09T13:46:03;18.70;99.90
52203;DHT22;38173;52.850;6.970;2022-09-09T13:48:29;18.60;99.90
52203;DHT22;38173;52.850;6.970;2022-09-09T13:51:02;18.60;99.90
52203;DHT22;38173;52.850;6.970;2022-09-09T13:53:30;18.60;99.90
52203;DHT22;38173;52.850;6.970;2022-09-09T13:55:56;18.70;99.90
52203;DHT22;38173;52.850;6.970;2022-09-09T13:58:23;18.80;99.90
52203;DHT22;38173;52.850;6.970;2022-09-09T14:00:51;19.00;99.90
52203;DHT22;38173;52.850;6.970;2022-09-09T14:03:17;19.20;99.90
52203;DHT22;38173;52.850;6.970;2022-09-09T14:05:44;19.40;99.90
52203;DHT22;38173;52.850;6.970;2022-09-09T14:08:24;19.60;99.90
52203;DHT22;38173;52.850;6.970;2022-09-09T14:10:51;19.60;99.90
52203;DHT22;38173;52.850;6.970;2022-09-09T14:13:17;19.80;99.90
52203;DHT22;38173;52.850;6.970;2022-09-09T14:15:43;19.90;99.90
52203;DHT22;38173;52.850;6.970;2022-09-09T14:18:13;20.10;99.90
52203;DHT22;38173;52.850;6.970;2022-09-09T14:20:40;20.20;99.90
52203;DHT22;38173;52.850;6.970;2022-09-09T14:23:07;20.30;99.90
52203;DHT22;38173;52.850;6.970;2022-09-09T14:25:35;20.30;99.90
52203;DHT22;38173;52.850;6.970;2022-09-09T14:28:02;20.00;99.90
52203;DHT22;38173;52.850;6.970;2022-09-09T14:30:28;19.80;99.90
52203;DHT22;38173;52.850;6.970;2022-09-09T14:32:53;19.40;99.90
52203;DHT22;38173;52.850;6.970;2022-09-09T14:35:19;19.20;99.90
52203;DHT22;38173;52.850;6.970;2022-09-09T14:37:45;18.90;99.90
52203;DHT22;38173;52.850;6.970;2022-09-09T14:40:11;18.60;99.90
52203;DHT22;38173;52.850;6.970;2022-09-09T14:42:37;18.40;99.90
52203;DHT22;38173;52.850;6.970;2022-09-09T14:45:03;18.20;99.90
52203;DHT22;38173;52.850;6.970;2022-09-09T14:47:29;18.00;99.90
52203;DHT22;38173;52.850;6.970;2022-09-09T14:49:55;18.00;99.90
52203;DHT22;38173;52.850;6.970;2022-09-09T14:52:21;17.90;99.90
52203;DHT22;38173;52.850;6.970;2022-09-09T14:54:46;17.80;99.90
52203;DHT22;38173;52.850;6.970;2022-09-09T14:57:12;17.90;99.90
52203;DHT22;38173;52.850;6.970;2022-09-09T14:59:38;18.00;99.90
52203;DHT22;38173;52.850;6.970;2022-09-09T15:02:04;18.20;99.90
52203;DHT22;38173;52.850;6.970;2022-09-09T15:04:29;18.50;99.90
52203;DHT22;38173;52.850;6.970;2022-09-09T15:06:55;18.70;99.90
52203;DHT22;38173;52.850;6.970;2022-09-09T15:09:21;18.90;99.90
52203;DHT22;38173;52.850;6.970;2022-09-09T15:11:48;19.10;99.90
52203;DHT22;38173;52.850;6.970;2022-09-09T15:14:14;19.10;99.90
52203;DHT22;38173;52.850;6.970;2022-09-09T15:16:40;19.20;99.90
52203;DHT22;38173;52.850;6.970;2022-09-09T15:19:06;19.10;99.90
52203;DHT22;38173;52.850;6.970;2022-09-09T15:21:35;19.10;99.90
52203;DHT22;38173;52.850;6.970;2022-09-09T15:24:04;19.20;99.90
52203;DHT22;38173;52.850;6.970;2022-09-09T15:26:30;19.30;99.90
52203;DHT22;38173;52.850;6.970;2022-09-09T15:28:56;19.30;99.90
52203;DHT22;38173;52.850;6.970;2022-09-09T15:31:27;19.20;99.90
52203;DHT22;38173;52.850;6.970;2022-09-09T15:33:56;19.30;99.90
52203;DHT22;38173;52.850;6.970;2022-09-09T15:36:44;19.20;99.90
52203;DHT22;38173;52.850;6.970;2022-09-09T15:39:13;19.20;99.90
52203;DHT22;38173;52.850;6.970;2022-09-09T15:41:42;19.10;99.90
52203;DHT22;38173;52.850;6.970;2022-09-09T15:44:09;19.00;99.90
52203;DHT22;38173;52.850;6.970;2022-09-09T15:46:39;19.00;99.90
52203;DHT22;38173;52.850;6.970;2022-09-09T15:49:16;18.90;99.90
52203;DHT22;38173;52.850;6.970;2022-09-09T15:54:20;18.80;99.90
52203;DHT22;38173;52.850;6.970;2022-09-09T15:56:54;18.80;99.90
52203;DHT22;38173;52.850;6.970;2022-09-09T15:59:22;18.70;99.90
52203;DHT22;38173;52.850;6.970;2022-09-09T16:01:48;18.70;99.90
52203;DHT22;38173;52.850;6.970;2022-09-09T16:04:17;18.60;99.90
52203;DHT22;38173;52.850;6.970;2022-09-09T16:06:56;18.60;99.90
52203;DHT22;38173;52.850;6.970;2022-09-09T16:09:24;18.50;99.90
52203;DHT22;38173;52.850;6.970;2022-09-09T16:11:50;18.40;99.90
52203;DHT22;38173;52.850;6.970;2022-09-09T16:14:18;18.40;99.90
52203;DHT22;38173;52.850;6.970;2022-09-09T16:16:44;18.30;99.90
52203;DHT22;38173;52.850;6.970;2022-09-09T16:19:12;18.20;99.90
52203;DHT22;38173;52.850;6.970;2022-09-09T16:21:46;18.20;99.90
52203;DHT22;38173;52.850;6.970;2022-09-09T16:24:15;18.20;99.90
52203;DHT22;38173;52.850;6.970;2022-09-09T16:26:43;18.10;99.90
52203;DHT22;38173;52.850;6.970;2022-09-09T16:29:13;18.10;99.90
52203;DHT22;38173;52.850;6.970;2022-09-09T16:31:40;18.10;99.90
52203;DHT22;38173;52.850;6.970;2022-09-09T16:34:06;18.10;99.90
52203;DHT22;38173;52.850;6.970;2022-09-09T16:36:34;18.10;99.90
52203;DHT22;38173;52.850;6.970;2022-09-09T16:39:04;18.00;99.90
52203;DHT22;38173;52.850;6.970;2022-09-09T16:41:31;18.00;99.90
52203;DHT22;38173;52.850;6.970;2022-09-09T16:44:02;17.90;99.90
52203;DHT22;38173;52.850;6.970;2022-09-09T16:46:31;17.90;99.90
52203;DHT22;38173;52.850;6.970;2022-09-09T16:48:58;17.80;99.90
52203;DHT22;38173;52.850;6.970;2022-09-09T16:51:36;17.70;99.90
52203;DHT22;38173;52.850;6.970;2022-09-09T16:54:05;17.70;99.90
52203;DHT22;38173;52.850;6.970;2022-09-09T16:56:36;17.60;99.90
52203;DHT22;38173;52.850;6.970;2022-09-09T16:59:06;17.60;99.90
52203;DHT22;38173;52.850;6.970;2022-09-09T17:01:34;17.60;99.90
52203;DHT22;38173;52.850;6.970;2022-09-09T17:04:06;17.60;99.90
52203;DHT22;38173;52.850;6.970;2022-09-09T17:06:33;17.60;99.90
52203;DHT22;38173;52.850;6.970;2022-09-09T17:09:02;17.60;99.90
52203;DHT22;38173;52.850;6.970;2022-09-09T17:11:29;17.60;99.90
52203;DHT22;38173;52.850;6.970;2022-09-09T17:13:56;17.60;99.90
52203;DHT22;38173;52.850;6.970;2022-09-09T17:16:25;17.50;99.90
52203;DHT22;38173;52.850;6.970;2022-09-09T17:18:53;17.50;99.90
52203;DHT22;38173;52.850;6.970;2022-09-09T17:21:23;17.50;99.90
52203;DHT22;38173;52.850;6.970;2022-09-09T17:23:51;17.40;99.90
52203;DHT22;38173;52.850;6.970;2022-09-09T17:26:19;17.30;99.90
52203;DHT22;38173;52.850;6.970;2022-09-09T17:28:45;17.30;99.90
52203;DHT22;38173;52.850;6.970;2022-09-09T17:31:13;17.30;99.90
52203;DHT22;38173;52.850;6.970;2022-09-09T17:33:41;17.20;99.90
52203;DHT22;38173;52.850;6.970;2022-09-09T17:36:18;17.20;99.90
52203;DHT22;38173;52.850;6.970;2022-09-09T17:38:45;17.20;99.90
52203;DHT22;38173;52.850;6.970;2022-09-09T17:43:40;17.20;99.90
52203;DHT22;38173;52.850;6.970;2022-09-09T17:46:15;17.20;99.90
52203;DHT22;38173;52.850;6.970;2022-09-09T17:48:43;17.00;99.90
52203;DHT22;38173;52.850;6.970;2022-09-09T17:51:15;17.00;99.90
52203;DHT22;38173;52.850;6.970;2022-09-09T17:53:45;17.00;99.90
52203;DHT22;38173;52.850;6.970;2022-09-09T17:56:16;17.00;99.90